This is the latest recevied weather packets stored in our database for station/object SP3WRO-2. If no packets are shown the sender has not sent any weather packets the latest 10 day(s).
| Time | Temp. | Humidity | Pressure | Rain* | Wind** | Luminosity | Snow |
|---|---|---|---|---|---|---|---|
| 1788011010 | 22.78° C | 63% | 1008.6 hPa | 1.78 mm | - | 476 W/m² | - |
| 1788010106 | 22.22° C | 67% | 1008.8 hPa | 1.78 mm | - | 535 W/m² | - |
| 1788009205 | 21.67° C | 74% | 1008.8 hPa | 1.78 mm | - | 219 W/m² | - |
| 1788008303 | 22.22° C | 71% | 1008.8 hPa | 1.78 mm | - | 545 W/m² | - |
| 1788007402 | 21.67° C | 75% | 1008.8 hPa | 1.78 mm | - | 569 W/m² | - |
| 1788006501 | 19.44° C | 86% | 1008.9 hPa | 1.78 mm | - | 606 W/m² | - |
| 1788005600 | 17.78° C | 90% | 1008.9 hPa | 1.78 mm | - | 497 W/m² | - |
| 1788004699 | 17.78° C | 87% | 1009.1 hPa | 1.78 mm | - | 171 W/m² | - |
| 1788003799 | 20.56° C | 75% | 1008.9 hPa | - | - | 56 W/m² | - |
| 1788002898 | 22.78° C | 68% | 1008.9 hPa | - | - | 813 W/m² | - |
| 1788001996 | 22.22° C | 69% | 1009 hPa | - | - | 716 W/m² | - |
| 1788001095 | 21.67° C | 68% | 1009.1 hPa | - | - | 696 W/m² | - |
| 1788000194 | 20.56° C | 73% | 1009.3 hPa | - | - | 372 W/m² | - |
| 1787999293 | 21.11° C | 74% | 1009.3 hPa | - | - | 322 W/m² | - |
| 1787998393 | 20.56° C | 75% | 1009.3 hPa | - | - | 346 W/m² | - |
| 1787997492 | 20.56° C | 80% | 1009.3 hPa | - | - | 669 W/m² | - |
| 1787996591 | 18.89° C | 83% | 1009.2 hPa | - | - | 262 W/m² | - |
| 1787995690 | 18.33° C | 88% | 1009.2 hPa | - | - | 245 W/m² | - |
| 1787994789 | 18.33° C | 86% | 1009.2 hPa | - | - | 159 W/m² | - |
| 1787993888 | 18.89° C | 86% | 1009 hPa | - | - | 213 W/m² | - |
| 1787992987 | 18.89° C | 88% | 1009 hPa | - | - | 218 W/m² | - |
| 1787992086 | 18.33° C | 90% | 1008.9 hPa | - | - | 200 W/m² | - |
| 1787991185 | 18.33° C | 91% | 1008.7 hPa | - | - | 200 W/m² | - |
| 1787990285 | 17.78° C | 93% | 1008.7 hPa | - | - | 126 W/m² | - |
| 1787946276 | 21.11° C | 62% | 1006.7 hPa | - | - | - | - |
* Rain latest 24 hours (hover to see other rain measurements)
** Current wind speed in m/s (hover to see current wind gust speed)